createdAt,value
2022-12-01T00:01:37.807Z,35.95
2022-12-01T00:04:06.295Z,31.77
2022-12-01T00:06:34.444Z,33.42
2022-12-01T00:09:20.497Z,34.65
2022-12-01T00:11:49.988Z,32.55
2022-12-01T00:14:18.403Z,34.05
2022-12-01T00:16:47.951Z,33.50
2022-12-01T00:19:17.824Z,34.42
2022-12-01T00:21:47.017Z,33.28
2022-12-01T00:24:15.190Z,31.90
2022-12-01T00:26:43.376Z,32.85
2022-12-01T00:29:11.624Z,30.35
2022-12-01T00:31:39.907Z,34.13
2022-12-01T00:34:22.372Z,36.58
2022-12-01T00:36:50.829Z,33.03
2022-12-01T00:39:19.214Z,34.65
2022-12-01T00:41:47.397Z,30.52
2022-12-01T00:44:15.561Z,32.88
2022-12-01T00:46:43.725Z,30.10
2022-12-01T00:49:14.549Z,31.83
2022-12-01T00:51:42.965Z,30.90
2022-12-01T00:54:11.121Z,32.35
2022-12-01T00:56:39.229Z,29.20
2022-12-01T00:59:07.366Z,31.17
2022-12-01T01:01:35.631Z,33.08
2022-12-01T01:04:03.924Z,30.92
2022-12-01T01:06:33.441Z,31.48
2022-12-01T01:09:01.593Z,30.75
2022-12-01T01:11:29.737Z,27.73
2022-12-01T01:13:59.842Z,28.67
2022-12-01T01:16:28.115Z,32.25
2022-12-01T01:18:57.936Z,34.03
2022-12-01T01:21:27.776Z,32.33
2022-12-01T01:23:57.896Z,34.67
2022-12-01T01:26:28.278Z,31.42
2022-12-01T01:28:58.960Z,31.10
2022-12-01T01:31:29.424Z,31.20
2022-12-01T01:33:58.023Z,37.85
2022-12-01T01:36:26.764Z,34.58
2022-12-01T01:38:56.474Z,31.10
2022-12-01T01:41:24.808Z,33.70
2022-12-01T01:43:55.436Z,31.42
2022-12-01T01:46:25.017Z,30.95
2022-12-01T01:48:56.298Z,30.85
2022-12-01T01:51:28.274Z,32.33
2022-12-01T01:54:03.271Z,30.10
2022-12-01T01:56:31.935Z,29.00
2022-12-01T01:59:01.004Z,25.45
2022-12-01T02:01:29.257Z,29.85
2022-12-01T02:03:58.089Z,28.65
2022-12-01T02:06:26.274Z,32.10
2022-12-01T02:08:54.587Z,27.48
2022-12-01T02:11:48.622Z,27.50
2022-12-01T02:14:48.060Z,29.23
2022-12-01T02:17:28.098Z,26.88
2022-12-01T02:20:23.605Z,27.98
2022-12-01T02:23:04.705Z,27.50
2022-12-01T02:25:49.477Z,26.63
2022-12-01T02:28:45.956Z,26.27
2022-12-01T02:31:18.674Z,25.67
2022-12-01T02:33:55.209Z,28.77
2022-12-01T02:36:30.873Z,27.95
2022-12-01T02:39:06.944Z,27.52
2022-12-01T02:41:42.053Z,28.75
2022-12-01T02:44:18.018Z,30.00
2022-12-01T02:46:50.972Z,32.42
2022-12-01T02:49:22.449Z,32.92
2022-12-01T02:51:53.993Z,30.10
2022-12-01T02:54:23.201Z,29.55
2022-12-01T02:56:54.893Z,29.88
2022-12-01T02:59:23.031Z,30.30
2022-12-01T03:02:05.520Z,29.38
2022-12-01T03:04:47.662Z,29.23
2022-12-01T03:07:33.039Z,27.30
2022-12-01T03:10:07.193Z,28.40
2022-12-01T03:12:43.932Z,30.85
2022-12-01T03:15:20.012Z,30.42
2022-12-01T03:17:57.719Z,32.10
2022-12-01T03:20:32.961Z,29.45
2022-12-01T03:23:09.588Z,27.83
2022-12-01T03:25:41.020Z,29.48
2022-12-01T03:28:25.097Z,30.98
2022-12-01T03:30:59.937Z,27.58
2022-12-01T03:33:35.825Z,30.85
2022-12-01T03:36:10.134Z,29.70
2022-12-01T03:38:38.872Z,29.70
2022-12-01T03:41:11.977Z,31.00
2022-12-01T03:43:45.025Z,31.13
2022-12-01T03:46:19.344Z,34.78
2022-12-01T03:48:49.222Z,33.90
2022-12-01T03:51:22.508Z,36.45
2022-12-01T03:53:56.252Z,34.65
2022-12-01T03:56:30.717Z,36.28
2022-12-01T03:59:01.761Z,34.65
2022-12-01T04:01:33.635Z,34.28
2022-12-01T04:04:12.488Z,33.25
2022-12-01T04:06:43.937Z,35.20
2022-12-01T04:09:12.105Z,34.92
2022-12-01T04:11:57.958Z,35.42
2022-12-01T04:14:26.160Z,37.00
2022-12-01T04:16:54.461Z,34.00
2022-12-01T04:19:24.064Z,34.03
2022-12-01T04:21:52.229Z,34.95
2022-12-01T04:24:20.457Z,34.65
2022-12-01T04:26:48.817Z,29.95
2022-12-01T04:29:17.050Z,38.30
2022-12-01T04:31:45.364Z,30.38
2022-12-01T04:34:13.561Z,36.50
2022-12-01T04:36:43.187Z,33.22
2022-12-01T04:39:11.358Z,36.92
2022-12-01T04:41:39.934Z,34.90
2022-12-01T04:44:08.341Z,35.67
2022-12-01T04:46:36.670Z,33.17
2022-12-01T04:49:05.184Z,31.50
2022-12-01T04:51:33.676Z,32.78
2022-12-01T04:54:05.850Z,35.00
2022-12-01T04:56:34.129Z,34.45
2022-12-01T04:59:02.580Z,36.13
2022-12-01T05:01:31.066Z,32.22
2022-12-01T05:03:59.298Z,31.05
2022-12-01T05:06:29.160Z,32.95
2022-12-01T05:09:00.320Z,33.85
2022-12-01T05:11:31.489Z,32.75
2022-12-01T05:13:59.986Z,33.25
2022-12-01T05:16:31.939Z,32.58
2022-12-01T05:19:19.338Z,32.30
2022-12-01T05:21:49.758Z,34.90
2022-12-01T05:24:20.558Z,36.92
2022-12-01T05:26:50.489Z,38.03
2022-12-01T05:29:18.765Z,32.88
2022-12-01T05:31:47.752Z,39.40
2022-12-01T05:34:16.200Z,35.72
2022-12-01T05:36:44.434Z,38.58
2022-12-01T05:39:12.640Z,38.70
2022-12-01T05:41:40.862Z,36.33
2022-12-01T05:44:10.465Z,37.40
2022-12-01T05:46:38.709Z,39.95
2022-12-01T05:49:07.484Z,40.88
2022-12-01T05:51:35.675Z,41.30
2022-12-01T05:54:03.873Z,41.58
2022-12-01T05:56:32.093Z,44.00
2022-12-01T05:59:00.312Z,42.28
2022-12-01T06:01:29.872Z,40.40
2022-12-01T06:03:58.093Z,41.53
2022-12-01T06:06:26.328Z,43.00
2022-12-01T06:08:54.593Z,42.05
2022-12-01T06:11:23.033Z,41.80
2022-12-01T06:13:51.258Z,40.47
2022-12-01T06:16:19.492Z,41.42
2022-12-01T06:18:49.107Z,41.00
2022-12-01T06:21:17.330Z,42.70
2022-12-01T06:23:45.616Z,39.90
2022-12-01T06:26:13.787Z,41.67
2022-12-01T06:28:42.019Z,42.72
2022-12-01T06:31:10.231Z,40.78
2022-12-01T06:33:38.425Z,38.30
2022-12-01T06:36:10.515Z,39.20
2022-12-01T06:38:38.907Z,40.45
2022-12-01T06:41:07.552Z,42.88
2022-12-01T06:43:37.750Z,41.90
2022-12-01T06:46:06.726Z,42.20
2022-12-01T06:48:35.202Z,42.58
2022-12-01T06:51:04.271Z,39.55
2022-12-01T06:53:33.887Z,39.72
2022-12-01T06:56:05.279Z,37.97
2022-12-01T06:58:34.626Z,39.75
2022-12-01T07:01:09.395Z,44.03
2022-12-01T07:03:37.647Z,39.08
2022-12-01T07:06:06.231Z,42.38
2022-12-01T07:08:36.026Z,42.83
2022-12-01T07:11:07.300Z,41.53
2022-12-01T07:13:35.867Z,40.33
2022-12-01T07:16:04.756Z,54.83
2022-12-01T07:18:33.748Z,45.45
2022-12-01T07:21:02.499Z,45.38
2022-12-01T07:23:31.262Z,47.95
2022-12-01T07:26:01.704Z,44.42
2022-12-01T07:28:30.020Z,42.40
2022-12-01T07:31:03.631Z,38.35
2022-12-01T07:33:32.229Z,39.13
2022-12-01T07:36:00.778Z,40.13
2022-12-01T07:38:30.232Z,40.90
2022-12-01T07:41:04.960Z,37.45
2022-12-01T07:43:33.519Z,36.70
2022-12-01T07:46:07.137Z,39.40
2022-12-01T07:48:35.600Z,41.47
2022-12-01T07:51:04.692Z,44.45
2022-12-01T07:53:33.133Z,40.08
2022-12-01T07:56:06.928Z,39.50
2022-12-01T07:58:38.257Z,39.20
2022-12-01T08:01:11.973Z,37.05
2022-12-01T08:03:40.426Z,39.72
2022-12-01T08:06:09.599Z,40.45
2022-12-01T08:08:39.681Z,38.08
2022-12-01T08:11:11.091Z,34.35
2022-12-01T08:13:40.962Z,37.65
2022-12-01T08:16:11.106Z,34.92
2022-12-01T08:18:40.665Z,36.08
2022-12-01T08:21:11.095Z,36.55
2022-12-01T08:23:39.471Z,35.60
2022-12-01T08:26:12.538Z,39.10
2022-12-01T08:28:42.550Z,37.67
2022-12-01T08:31:12.329Z,36.42
2022-12-01T08:33:40.987Z,38.38
2022-12-01T08:36:10.222Z,38.88
2022-12-01T08:38:38.875Z,37.97
2022-12-01T08:41:09.024Z,37.40
2022-12-01T08:46:32.200Z,34.03
2022-12-01T08:49:00.510Z,35.10
2022-12-01T08:51:29.283Z,36.63
2022-12-01T08:53:59.052Z,33.88
2022-12-01T08:56:30.174Z,36.78
2022-12-01T08:58:59.076Z,31.00
2022-12-01T09:01:27.617Z,30.98
2022-12-01T09:04:07.577Z,31.23
2022-12-01T09:06:40.726Z,31.95
2022-12-01T09:09:09.855Z,30.63
2022-12-01T09:11:38.200Z,30.65
2022-12-01T09:14:06.550Z,31.45
2022-12-01T09:16:34.903Z,32.97
2022-12-01T09:19:04.902Z,33.13
2022-12-01T09:21:35.126Z,35.72
2022-12-01T09:24:03.669Z,34.55
2022-12-01T09:26:32.318Z,32.55
2022-12-01T09:29:02.349Z,34.42
2022-12-01T09:31:30.913Z,36.08
2022-12-01T09:34:01.385Z,35.05
2022-12-01T09:36:32.375Z,34.33
2022-12-01T09:39:01.136Z,38.03
2022-12-01T09:41:33.665Z,37.20
2022-12-01T09:44:14.000Z,37.53
2022-12-01T09:46:45.311Z,36.03
2022-12-01T09:49:18.673Z,33.38
2022-12-01T09:51:48.326Z,31.77
2022-12-01T09:54:16.679Z,31.92
2022-12-01T09:56:49.449Z,30.02
2022-12-01T09:59:23.745Z,31.98
2022-12-01T10:01:56.947Z,34.15
2022-12-01T10:04:30.558Z,32.47
2022-12-01T10:07:04.183Z,32.88
2022-12-01T10:09:39.516Z,31.55
2022-12-01T10:12:15.302Z,28.88
2022-12-01T10:14:46.453Z,30.17
2022-12-01T10:17:24.193Z,30.20
2022-12-01T10:20:00.036Z,31.88
2022-12-01T10:22:50.905Z,28.98
2022-12-01T10:25:23.467Z,32.83
2022-12-01T10:28:12.356Z,33.97
2022-12-01T10:30:52.810Z,32.70
2022-12-01T10:33:25.893Z,34.47
2022-12-01T10:35:54.905Z,30.55
2022-12-01T10:38:28.146Z,30.58
2022-12-01T10:41:00.864Z,31.63
2022-12-01T10:43:34.003Z,34.10
2022-12-01T10:46:20.462Z,33.33
2022-12-01T10:48:55.935Z,33.92
2022-12-01T10:51:24.815Z,35.85
2022-12-01T10:54:00.279Z,34.53
2022-12-01T10:56:29.174Z,35.13
2022-12-01T10:59:01.063Z,37.92
2022-12-01T11:01:32.039Z,37.97
2022-12-01T11:04:04.689Z,36.65
2022-12-01T11:06:33.830Z,36.05
2022-12-01T11:09:07.635Z,33.85
2022-12-01T11:11:38.696Z,31.88
2022-12-01T11:14:17.427Z,31.83
2022-12-01T11:16:46.785Z,33.03
2022-12-01T11:19:29.184Z,31.70
2022-12-01T11:21:58.765Z,31.25
2022-12-01T11:24:33.973Z,31.75
2022-12-01T11:27:02.454Z,29.80
2022-12-01T11:29:36.070Z,32.25
2022-12-01T11:32:13.941Z,30.98
2022-12-01T11:34:42.363Z,31.95
2022-12-01T11:37:18.880Z,33.50
2022-12-01T11:39:49.721Z,31.92
2022-12-01T11:42:24.280Z,34.60
2022-12-01T11:44:55.425Z,33.25
2022-12-01T11:47:25.631Z,36.50
2022-12-01T11:49:58.067Z,34.17
2022-12-01T11:52:30.171Z,34.40
2022-12-01T11:55:20.267Z,34.45
2022-12-01T11:57:51.242Z,32.30
2022-12-01T12:00:21.803Z,34.42
2022-12-01T12:03:04.650Z,34.50
2022-12-01T12:06:39.084Z,35.25
2022-12-01T12:09:12.444Z,35.13
2022-12-01T12:11:48.866Z,32.40
2022-12-01T12:14:37.464Z,32.75
2022-12-01T12:17:28.929Z,32.05
2022-12-01T12:20:23.232Z,30.85
2022-12-01T12:23:01.509Z,39.08
2022-12-01T12:25:40.169Z,32.63
2022-12-01T12:28:25.281Z,32.90
2022-12-01T12:31:02.482Z,34.30
2022-12-01T12:33:49.616Z,32.83
2022-12-01T12:36:26.029Z,32.17
2022-12-01T12:39:03.887Z,29.42
2022-12-01T12:41:38.076Z,33.25
2022-12-01T12:44:37.229Z,31.92
2022-12-01T12:47:18.005Z,30.35
2022-12-01T12:49:51.843Z,32.00
2022-12-01T12:52:24.493Z,28.35
2022-12-01T12:54:57.935Z,30.80
2022-12-01T12:57:30.638Z,30.17
2022-12-01T13:00:04.027Z,30.00
2022-12-01T13:02:37.357Z,30.77
2022-12-01T13:05:10.742Z,32.20
2022-12-01T13:07:44.018Z,30.67
2022-12-01T13:10:24.177Z,30.00
2022-12-01T13:12:59.532Z,32.45
2022-12-01T13:15:31.016Z,31.98
2022-12-01T13:18:04.700Z,31.33
2022-12-01T13:20:37.729Z,30.83
2022-12-01T13:23:14.697Z,32.60
2022-12-01T13:25:44.433Z,29.83
2022-12-01T13:28:18.743Z,30.00
2022-12-01T13:31:02.274Z,27.98
2022-12-01T13:33:34.104Z,29.17
2022-12-01T13:39:00.496Z,29.33
2022-12-01T13:41:31.416Z,29.42
2022-12-01T13:44:03.604Z,30.67
2022-12-01T13:46:52.709Z,30.38
2022-12-01T13:49:44.686Z,29.17
2022-12-01T13:56:41.075Z,27.83
2022-12-01T13:59:42.652Z,28.45
2022-12-01T14:02:20.679Z,38.60
2022-12-01T14:04:49.586Z,32.47
2022-12-01T14:07:36.659Z,30.90
2022-12-01T14:10:31.144Z,31.58
2022-12-01T14:13:04.414Z,33.40
2022-12-01T14:15:36.218Z,41.83
2022-12-01T14:18:09.164Z,34.88
2022-12-01T14:21:06.066Z,31.73
2022-12-01T14:23:36.897Z,30.23
2022-12-01T14:26:17.533Z,34.03
2022-12-01T14:29:24.482Z,30.77
2022-12-01T14:32:23.844Z,30.13
2022-12-01T14:35:12.718Z,29.92
2022-12-01T14:37:50.992Z,32.25
2022-12-01T14:40:27.778Z,29.50
2022-12-01T14:43:16.365Z,33.85
2022-12-01T14:45:55.288Z,30.17
2022-12-01T14:48:29.162Z,29.60
2022-12-01T14:51:17.480Z,30.17
2022-12-01T14:53:49.642Z,30.60
2022-12-01T14:59:06.873Z,30.52
2022-12-01T15:01:44.661Z,32.08
2022-12-01T15:04:14.104Z,29.30
2022-12-01T15:06:47.162Z,31.10
2022-12-01T15:09:35.462Z,31.55
2022-12-01T15:12:25.518Z,29.63
2022-12-01T15:15:02.849Z,30.08
2022-12-01T15:17:34.900Z,29.30
2022-12-01T15:20:06.447Z,32.20
2022-12-01T15:22:37.383Z,30.75
2022-12-01T15:25:18.665Z,29.25
2022-12-01T15:28:15.496Z,27.67
2022-12-01T15:30:52.780Z,28.88
2022-12-01T15:33:27.801Z,28.55
2022-12-01T15:36:01.241Z,27.52
2022-12-01T15:38:38.211Z,27.08
2022-12-01T15:41:32.950Z,28.00
2022-12-01T15:44:03.861Z,28.85
2022-12-01T15:46:42.274Z,30.20
2022-12-01T15:49:43.720Z,28.45
2022-12-01T15:52:19.208Z,28.55
2022-12-01T15:54:51.670Z,29.42
2022-12-01T15:57:25.382Z,28.15
2022-12-01T16:00:00.035Z,29.27
2022-12-01T16:02:42.331Z,31.65
2022-12-01T16:05:36.238Z,30.02
2022-12-01T16:08:29.492Z,30.55
2022-12-01T16:11:25.247Z,29.27
2022-12-01T16:14:12.873Z,32.17
2022-12-01T16:16:47.604Z,32.75
2022-12-01T16:19:34.238Z,31.05
2022-12-01T16:22:25.758Z,30.95
2022-12-01T16:25:06.410Z,32.03
2022-12-01T16:27:55.732Z,32.45
2022-12-01T16:30:31.723Z,31.83
2022-12-01T16:33:27.959Z,29.88
2022-12-01T16:39:16.301Z,31.85
2022-12-01T16:41:50.098Z,30.50
2022-12-01T16:44:28.740Z,31.02
2022-12-01T16:47:11.235Z,30.33
2022-12-01T16:49:55.013Z,29.50
2022-12-01T16:52:47.734Z,29.70
2022-12-01T16:55:39.470Z,30.20
2022-12-01T16:58:08.721Z,29.85
2022-12-01T17:00:53.747Z,29.23
2022-12-01T17:03:34.101Z,29.05
2022-12-01T17:06:12.773Z,29.67
2022-12-01T17:08:53.434Z,30.17
2022-12-01T17:11:31.528Z,28.92
2022-12-01T17:14:00.411Z,30.88
2022-12-01T17:16:33.153Z,32.00
2022-12-01T17:19:11.996Z,29.75
2022-12-01T17:21:46.695Z,30.35
2022-12-01T17:24:19.572Z,29.48
2022-12-01T17:26:53.837Z,30.13
2022-12-01T17:29:26.455Z,28.85
2022-12-01T17:31:59.524Z,30.60
2022-12-01T17:34:31.465Z,30.65
2022-12-01T17:37:00.025Z,31.88
2022-12-01T17:39:34.873Z,29.10
2022-12-01T17:42:09.865Z,31.38
2022-12-01T17:44:41.287Z,30.80
2022-12-01T17:47:18.301Z,31.55
2022-12-01T17:49:47.004Z,33.60
2022-12-01T17:52:22.123Z,30.00
2022-12-01T17:54:57.370Z,30.38
2022-12-01T17:57:26.636Z,31.50
2022-12-01T17:59:59.200Z,32.05
2022-12-01T18:02:37.414Z,30.88
2022-12-01T18:05:09.944Z,33.03
2022-12-01T18:07:39.497Z,33.38
2022-12-01T18:10:23.412Z,31.35
2022-12-01T18:12:54.987Z,32.22
2022-12-01T18:15:29.266Z,29.85
2022-12-01T18:18:14.033Z,31.15
2022-12-01T18:20:50.830Z,30.90
2022-12-01T18:23:26.193Z,33.70
2022-12-01T18:26:00.553Z,30.70
2022-12-01T18:28:39.984Z,33.15
2022-12-01T18:31:14.359Z,31.50
2022-12-01T18:33:46.862Z,31.15
2022-12-01T18:36:26.594Z,30.80
2022-12-01T18:39:07.438Z,33.20
2022-12-01T18:41:47.125Z,32.63
2022-12-01T18:44:21.737Z,31.88
2022-12-01T18:46:54.095Z,33.40
2022-12-01T18:49:30.753Z,32.25
2022-12-01T18:52:03.802Z,32.25
2022-12-01T18:54:41.580Z,29.38
2022-12-01T18:57:17.688Z,31.02
2022-12-01T18:59:58.015Z,30.30
2022-12-01T19:02:27.008Z,31.98
2022-12-01T19:04:57.286Z,29.92
2022-12-01T19:07:29.717Z,33.75
2022-12-01T19:09:59.721Z,32.45
2022-12-01T19:12:40.660Z,29.35
2022-12-01T19:15:13.860Z,30.90
2022-12-01T19:17:44.727Z,26.85
2022-12-01T19:20:21.125Z,28.42
2022-12-01T19:22:53.388Z,29.15
2022-12-01T19:25:28.277Z,28.30
2022-12-01T19:27:56.934Z,29.20
2022-12-01T19:30:26.288Z,30.05
2022-12-01T19:33:04.314Z,27.95
2022-12-01T19:35:38.476Z,25.48
2022-12-01T19:38:29.126Z,25.35
2022-12-01T19:41:06.614Z,27.67
2022-12-01T19:43:45.329Z,26.90
2022-12-01T19:46:22.823Z,25.73
2022-12-01T19:49:07.466Z,25.50
2022-12-01T19:51:46.267Z,25.73
2022-12-01T19:54:26.022Z,25.38
2022-12-01T19:57:01.066Z,27.13
2022-12-01T19:59:44.046Z,27.35
2022-12-01T20:02:15.820Z,26.83
2022-12-01T20:04:47.580Z,29.38
2022-12-01T20:07:20.506Z,28.77
2022-12-01T20:09:53.583Z,26.55
2022-12-01T20:12:22.343Z,27.85
2022-12-01T20:14:53.048Z,30.10
2022-12-01T20:17:31.033Z,27.55
2022-12-01T20:20:08.191Z,27.92
2022-12-01T20:22:55.801Z,28.55
2022-12-01T20:26:02.687Z,28.42
2022-12-01T20:28:46.759Z,29.77
2022-12-01T20:31:25.569Z,27.75
2022-12-01T20:34:00.344Z,28.33
2022-12-01T20:36:44.939Z,29.15
2022-12-01T20:39:16.260Z,29.33
2022-12-01T20:41:52.427Z,27.60
2022-12-01T20:44:25.021Z,30.50
2022-12-01T20:46:56.161Z,31.30
2022-12-01T20:49:34.381Z,31.20
2022-12-01T20:52:14.694Z,29.27
2022-12-01T20:54:52.520Z,27.58
2022-12-01T20:57:25.450Z,28.88
2022-12-01T21:00:00.468Z,29.52
2022-12-01T21:02:36.792Z,28.48
2022-12-01T21:05:14.796Z,30.27
2022-12-01T21:07:47.908Z,27.80
2022-12-01T21:10:30.608Z,29.73
2022-12-01T21:13:40.101Z,29.42
2022-12-01T21:16:35.856Z,28.45
2022-12-01T21:22:21.433Z,27.88
2022-12-01T21:25:04.636Z,27.65
2022-12-01T21:27:41.268Z,28.80
2022-12-01T21:30:19.039Z,28.73
2022-12-01T21:32:50.015Z,27.92
2022-12-01T21:35:26.403Z,30.67
2022-12-01T21:38:05.086Z,29.52
2022-12-01T21:40:47.079Z,28.55
2022-12-01T21:43:23.297Z,30.40
2022-12-01T21:46:01.327Z,30.40
2022-12-01T21:48:48.580Z,29.88
2022-12-01T21:51:33.853Z,27.90
2022-12-01T21:54:14.167Z,27.13
2022-12-01T21:56:57.548Z,28.25
2022-12-01T21:59:30.008Z,27.73
2022-12-01T22:01:59.873Z,29.58
2022-12-01T22:04:33.101Z,27.95
2022-12-01T22:07:11.681Z,28.20
2022-12-01T22:09:45.022Z,30.27
2022-12-01T22:12:44.194Z,27.67
2022-12-01T22:15:38.437Z,28.20
2022-12-01T22:18:21.588Z,28.38
2022-12-01T22:21:05.633Z,27.67
2022-12-01T22:23:36.440Z,27.17
2022-12-01T22:26:21.869Z,30.98
2022-12-01T22:28:59.629Z,27.70
2022-12-01T22:31:30.494Z,27.83
2022-12-01T22:34:12.833Z,28.17
2022-12-01T22:36:43.866Z,28.30
2022-12-01T22:39:35.921Z,28.95
2022-12-01T22:42:18.726Z,28.02
2022-12-01T22:44:51.989Z,29.52
2022-12-01T22:47:25.478Z,28.15
2022-12-01T22:49:55.678Z,26.33
2022-12-01T22:52:34.545Z,30.08
2022-12-01T22:55:06.990Z,26.65
2022-12-01T22:57:39.354Z,26.35
2022-12-01T23:00:18.394Z,28.88
2022-12-01T23:03:03.299Z,29.58
2022-12-01T23:05:41.617Z,26.52
2022-12-01T23:08:16.840Z,29.00
2022-12-01T23:10:56.133Z,26.65
2022-12-01T23:13:35.607Z,27.60
2022-12-01T23:16:11.507Z,27.00
2022-12-01T23:18:45.745Z,26.33
2022-12-01T23:21:17.429Z,27.92
2022-12-01T23:23:46.353Z,27.83
2022-12-01T23:26:35.882Z,27.42
2022-12-01T23:29:26.302Z,26.70
2022-12-01T23:32:02.267Z,25.70
2022-12-01T23:34:40.339Z,24.95
2022-12-01T23:37:37.494Z,25.75
2022-12-01T23:40:17.856Z,25.70
2022-12-01T23:42:49.251Z,25.35
2022-12-01T23:45:30.264Z,27.60
2022-12-01T23:48:09.681Z,27.45
2022-12-01T23:50:58.686Z,25.30
2022-12-01T23:53:36.266Z,26.35
2022-12-01T23:56:19.723Z,25.98
2022-12-01T23:58:55.883Z,26.05
